Rochelle, Georgia
Current Conditions -  °F | °C
As of 2:35 PM on Saturday 20 Dec 2014 (Local Time) from KCKF Reporting Station
Overcast Overcast  
Wind Chill: 15°   Ceiling: 12000
Heat Index: 15°   Visibility: 10mi
Dew Point: 10°   Wind: 3mph
Humidity: 73%   Direction: 40°NE
Pressure: 30.13"   Gusts: NA
Location:  31.95°N, 83.46°W
Report Text: KCKF 201935Z AUTO 04003KT 10SM SCT038 OVC120 15/10 A3013 RMK AO2 T01450097
Loading
Personal Weather Stations






























Interactive Weather Map New forecast layout! Learn more

10-Day Weather Forecast

Advertisements
Track Severe Weather on mobile